Time;durP1;ratioP1;P1;durP2;ratioP2;P2;SDS_P1;SDS_P2;PMS_P1;PMS_P2;Temp;Humidity;BMP_temperature;BMP_pressure;BME280_temperature;BME280_humidity;BME280_pressure;Samples;Min_cycle;Max_cycle;Signal;HPM_P1;HPM_P2
2021/12/21 00:02:17;;;;;;;1.65;1.30;;;;;;;3.30;55.50;100452.38;4310198;33;34391;-91
2021/12/21 00:05:20;;;;;;;1.95;1.02;;;;;;;3.53;54.42;100461.88;4314990;33;33022;-94
2021/12/21 00:08:04;;;;;;;2.03;1.00;;;;;;;3.45;54.38;100456.66;4314039;33;32583;-93
2021/12/21 00:10:57;;;;;;;2.15;0.98;;;;;;;3.13;55.60;100466.34;4333486;33;32506;-92
2021/12/21 00:13:54;;;;;;;1.65;0.88;;;;;;;3.40;53.78;100460.16;4339575;33;33102;-90
2021/12/21 00:17:12;;;;;;;1.48;1.00;;;;;;;3.48;53.44;100463.63;4316041;33;32168;-93
2021/12/21 00:34:08;;;;;;;0.65;0.47;;;;;;;3.04;53.09;100482.91;4310447;33;33999;-93
2021/12/21 00:37:04;;;;;;;1.98;0.90;;;;;;;2.93;53.09;100477.69;4303149;33;32673;-92
2021/12/21 00:39:44;;;;;;;1.08;0.77;;;;;;;3.19;52.49;100490.69;4292884;33;34436;-91
2021/12/21 00:42:41;;;;;;;2.37;1.08;;;;;;;3.25;52.41;100488.06;4302498;33;32394;-91
2021/12/21 00:45:21;;;;;;;1.25;0.70;;;;;;;2.72;53.96;100499.47;4324293;33;31973;-90
2021/12/21 00:48:16;;;;;;;1.15;0.62;;;;;;;2.81;53.59;100499.47;4318187;33;34364;-90
2021/12/21 00:50:59;;;;;;;0.40;0.30;;;;;;;3.02;52.67;100488.13;4333090;33;32972;-93
2021/12/21 00:53:54;;;;;;;2.50;0.90;;;;;;;2.92;53.10;100498.56;4328140;33;34503;-91
2021/12/21 00:56:34;;;;;;;2.05;0.77;;;;;;;2.94;52.55;100500.28;4318727;33;32874;-91
2021/12/21 00:59:29;;;;;;;2.45;0.60;;;;;;;2.82;52.85;100516.84;4318899;33;35649;-92
2021/12/21 01:02:10;;;;;;;0.70;0.70;;;;;;;2.88;52.75;100515.09;4330548;33;32981;-90
2021/12/21 01:05:14;;;;;;;1.83;0.82;;;;;;;2.78;53.48;100520.31;4338761;33;34526;-90
2021/12/21 01:07:59;;;;;;;2.62;0.98;;;;;;;2.35;54.59;100519.44;4323426;33;32869;-91
2021/12/21 01:27:14;;;;;;;2.40;1.02;;;;;;;2.57;54.20;100546.41;4332354;33;34631;-96
2021/12/21 01:30:20;;;;;;;2.22;1.60;;;;;;;2.55;54.04;100542.91;4317062;33;33019;-94
2021/12/21 01:33:22;;;;;;;2.75;0.85;;;;;;;2.24;54.88;100539.41;4322097;33;32487;-95
2021/12/21 01:36:14;;;;;;;2.95;1.27;;;;;;;2.15;55.14;100540.25;4333119;32;32533;-95
2021/12/21 01:52:09;;;;;;;1.75;0.60;;;;;;;2.42;53.61;100529.03;4274083;33;33108;-94
2021/12/21 01:55:00;;;;;;;2.12;0.75;;;;;;;2.24;54.16;100529.00;4268989;33;32719;-93
2021/12/21 01:57:42;;;;;;;2.05;1.10;;;;;;;2.24;53.96;100542.03;4336710;33;32960;-94
2021/12/21 02:00:25;;;;;;;1.90;0.82;;;;;;;1.79;55.30;100534.06;4326818;32;32658;-93
2021/12/21 02:03:09;;;;;;;2.47;0.52;;;;;;;2.05;54.55;100546.31;4340764;33;33731;-88
2021/12/21 02:05:37;;;;;;;2.30;0.90;;;;;;;1.92;54.60;100540.19;4319153;33;33016;-89
2021/12/21 02:08:05;;;;;;;6.78;1.60;;;;;;;1.74;54.54;100548.78;4319368;33;33074;-89
2021/12/21 02:10:33;;;;;;;0.90;0.50;;;;;;;1.81;54.15;100535.81;4319376;33;33439;-90
2021/12/21 02:13:04;;;;;;;1.45;0.77;;;;;;;1.75;54.30;100534.03;4331982;33;32157;-90
2021/12/21 02:15:32;;;;;;;4.00;1.25;;;;;;;1.56;54.86;100546.09;4318639;33;33218;-90
2021/12/21 02:20:49;;;;;;;1.75;0.50;;;;;;;1.59;54.69;100547.88;4344643;32;32753;-90
2021/12/21 02:23:38;;;;;;;2.47;1.00;;;;;;;1.93;53.66;100543.66;4345296;32;33937;-95
2021/12/21 02:29:18;;;;;;;0.95;0.70;;;;;;;2.23;51.23;100550.69;4340065;33;31954;-94
2021/12/21 02:32:12;;;;;;;0.60;0.55;;;;;;;2.21;50.98;100535.06;4324558;33;33036;-95
2021/12/21 02:34:56;;;;;;;1.33;0.60;;;;;;;1.76;51.93;100535.81;4310684;33;33611;-93
2021/12/21 02:37:47;;;;;;;0.93;0.50;;;;;;;2.04;50.44;100531.53;4331468;33;33016;-93
2021/12/21 02:40:30;;;;;;;2.70;1.48;;;;;;;2.06;49.75;100532.41;4344894;33;31779;-92
2021/12/21 02:43:13;;;;;;;0.65;0.50;;;;;;;1.59;51.20;100542.66;4346694;33;32427;-92
2021/12/21 02:46:05;;;;;;;0.50;0.40;;;;;;;1.62;51.29;100559.19;4319483;33;32206;-93
2021/12/21 02:48:35;;;;;;;2.03;0.70;;;;;;;1.60;51.61;100562.63;4315608;33;34236;-91
2021/12/21 02:51:38;;;;;;;1.15;0.50;;;;;;;1.94;51.23;100564.50;4305561;33;33310;-87
2021/12/21 02:54:06;;;;;;;2.80;0.85;;;;;;;2.40;49.67;100574.19;4326230;33;33023;-89
2021/12/21 02:56:34;;;;;;;0.62;0.52;;;;;;;1.74;51.01;100576.56;4315280;33;34101;-88
2021/12/21 02:59:03;;;;;;;1.65;0.62;;;;;;;2.32;49.97;100576.75;4315352;33;34280;-93
2021/12/21 03:01:48;;;;;;;1.45;0.55;;;;;;;2.34;49.55;100574.19;4342412;33;32938;-95
2021/12/21 03:04:32;;;;;;;1.30;0.77;;;;;;;2.46;49.30;100574.19;4354250;33;32942;-94
2021/12/21 03:10:22;;;;;;;0.95;0.47;;;;;;;2.33;49.41;100580.22;4363369;32;33612;-94
2021/12/21 03:16:15;;;;;;;0.75;0.50;;;;;;;2.25;49.05;100588.91;4344057;33;32821;-94
2021/12/21 03:18:56;;;;;;;0.95;0.60;;;;;;;2.25;49.08;100588.91;4331175;33;32814;-93
2021/12/21 03:21:47;;;;;;;1.48;0.90;;;;;;;2.13;49.37;100594.06;4308662;33;34417;-96
2021/12/21 03:24:33;;;;;;;2.35;0.60;;;;;;;2.23;48.67;100601.09;4331760;33;31682;-96
2021/12/21 03:27:16;;;;;;;1.62;0.40;;;;;;;2.19;49.06;100601.06;4336472;33;33257;-90
2021/12/21 03:29:44;;;;;;;6.25;0.50;;;;;;;2.16;48.04;100596.69;4344989;33;32882;-90
2021/12/21 03:32:26;;;;;;;3.45;0.65;;;;;;;2.33;47.66;100598.47;4314532;33;32704;-91
2021/12/21 03:35:36;;;;;;;1.33;0.62;;;;;;;2.20;47.64;100608.88;4298690;33;31804;-91
2021/12/21 03:38:03;;;;;;;;;;;;;;;2.18;48.50;100604.50;4305540;33;33496;-92
2021/12/21 03:41:02;;;;;;;1.73;0.45;;;;;;;2.34;47.37;100614.13;4361633;32;32702;-92
2021/12/21 03:43:41;;;;;;;0.50;0.43;;;;;;;2.21;48.09;100620.16;4331501;32;33132;-96
2021/12/21 03:46:48;;;;;;;1.37;0.85;;;;;;;2.32;47.23;100613.25;4331681;33;32382;-93
2021/12/21 03:52:27;;;;;;;1.92;0.52;;;;;;;1.63;49.08;100620.78;4354854;32;32517;-93
2021/12/21 03:55:10;;;;;;;2.92;0.55;;;;;;;2.25;47.21;100627.13;4355931;32;33659;-93
2021/12/21 03:58:04;;;;;;;1.10;0.45;;;;;;;2.49;46.21;100626.34;4360634;32;33872;-91
2021/12/21 04:00:43;;;;;;;0.30;0.30;;;;;;;1.77;48.70;100636.47;4324992;33;33367;-91
2021/12/21 04:03:25;;;;;;;2.83;0.40;;;;;;;2.03;47.71;100632.25;4332948;33;33593;-92
2021/12/21 04:06:19;;;;;;;0.45;0.30;;;;;;;1.56;48.65;100638.94;4340413;33;34476;-90
2021/12/21 04:09:04;;;;;;;1.17;0.55;;;;;;;2.21;47.02;100639.28;4332107;32;32309;-92
2021/12/21 04:11:46;;;;;;;1.45;0.50;;;;;;;2.30;46.40;100631.50;4322409;33;32689;-92
2021/12/21 04:14:29;;;;;;;0.70;0.20;;;;;;;2.09;47.64;100631.44;4328770;33;33251;-92
2021/12/21 04:17:18;;;;;;;6.10;0.50;;;;;;;1.98;47.46;100633.97;4304592;33;33790;-93
2021/12/21 04:20:10;;;;;;;1.08;0.60;;;;;;;1.81;48.52;100639.97;4327304;33;33647;-93
2021/12/21 04:22:50;;;;;;;0.93;0.52;;;;;;;2.07;47.52;100635.75;4322815;33;33525;-93
2021/12/21 04:25:41;;;;;;;0.82;0.70;;;;;;;1.91;48.11;100639.16;4335815;33;32410;-93
2021/12/21 04:28:21;;;;;;;0.50;0.40;;;;;;;1.83;48.11;100646.91;4315867;33;33255;-92
2021/12/21 04:31:12;;;;;;;0.85;0.43;;;;;;;2.21;47.42;100641.00;4310495;33;31715;-93
2021/12/21 04:33:53;;;;;;;0.88;0.40;;;;;;;2.36;46.55;100640.19;4322104;33;33130;-94
2021/12/21 04:36:45;;;;;;;1.95;0.62;;;;;;;2.14;47.15;100641.88;4312193;33;32994;-89
2021/12/21 04:39:30;;;;;;;0.95;0.40;;;;;;;1.92;47.98;100657.37;4317913;33;32979;-89
2021/12/21 04:42:13;;;;;;;0.65;0.30;;;;;;;2.30;47.04;100657.56;4320183;33;32900;-89
2021/12/21 04:44:56;;;;;;;0.62;0.47;;;;;;;2.40;46.36;100655.84;4319769;33;32143;-90
2021/12/21 04:47:26;;;;;;;3.03;0.52;;;;;;;2.47;46.34;100659.31;4306231;33;33059;-89
2021/12/21 04:49:54;;;;;;;0.82;0.60;;;;;;;2.46;46.02;100657.59;4318655;33;33220;-89
2021/12/21 04:52:38;;;;;;;1.90;1.12;;;;;;;2.31;46.04;100659.28;4308978;33;33699;-90
2021/12/21 04:55:25;;;;;;;2.42;1.05;;;;;;;2.16;46.10;100664.44;4309481;33;33908;-89
2021/12/21 04:57:57;;;;;;;2.22;0.70;;;;;;;1.89;46.94;100666.91;4317679;33;33033;-89
2021/12/21 05:00:45;;;;;;;0.73;0.40;;;;;;;2.03;46.15;100670.47;4316747;33;32548;-90
2021/12/21 05:03:52;;;;;;;4.78;0.40;;;;;;;1.99;46.21;100667.00;4311615;33;33972;-90
2021/12/21 05:06:21;;;;;;;2.90;0.62;;;;;;;1.75;47.76;100675.50;4318785;33;33349;-90
2021/12/21 05:09:27;;;;;;;2.20;0.45;;;;;;;2.11;46.27;100673.97;4310519;33;33287;-89
2021/12/21 05:12:17;;;;;;;1.75;0.40;;;;;;;1.62;47.42;100685.88;4316714;33;33159;-90
2021/12/21 05:15:05;;;;;;;2.03;0.52;;;;;;;1.53;47.61;100689.25;4307191;33;33712;-90
2021/12/21 05:18:14;;;;;;;3.22;0.50;;;;;;;1.46;47.71;100690.94;4320242;33;33082;-90
2021/12/21 05:21:00;;;;;;;1.58;0.40;;;;;;;1.72;47.06;100698.94;4329772;33;33013;-89
2021/12/21 05:24:07;;;;;;;4.15;0.70;;;;;;;1.67;47.57;100695.44;4323829;33;32252;-90
2021/12/21 05:26:55;;;;;;;1.75;0.60;;;;;;;1.73;47.31;100711.09;4332160;33;32511;-90
2021/12/21 05:29:33;;;;;;;1.60;0.50;;;;;;;1.76;47.01;100711.13;4322323;33;32398;-90
2021/12/21 05:32:21;;;;;;;1.70;0.70;;;;;;;1.78;46.99;100709.38;4322191;33;33309;-91
2021/12/21 05:35:16;;;;;;;1.70;0.60;;;;;;;2.03;46.50;100707.78;4316376;33;33404;-92
2021/12/21 05:38:01;;;;;;;3.10;0.68;;;;;;;1.83;46.93;100703.34;4318984;33;33386;-94
2021/12/21 05:40:54;;;;;;;1.35;0.77;;;;;;;2.01;46.58;100703.47;4325665;33;33114;-91
2021/12/21 05:43:33;;;;;;;1.05;0.77;;;;;;;1.79;46.81;100705.91;4358908;32;33427;-91
2021/12/21 05:46:24;;;;;;;1.87;0.82;;;;;;;2.10;45.91;100707.84;4308964;33;34350;-92
2021/12/21 05:49:03;;;;;;;0.80;0.73;;;;;;;2.02;46.06;100713.00;4330076;33;32223;-92
2021/12/21 05:51:54;;;;;;;5.25;1.05;;;;;;;2.12;45.51;100720.00;4316741;33;33226;-95
2021/12/21 05:54:33;;;;;;;4.95;1.98;;;;;;;2.01;45.22;100725.16;4314729;33;33190;-93
2021/12/21 05:57:24;;;;;;;6.35;2.05;;;;;;;2.13;44.83;100731.28;4314032;33;32981;-92
2021/12/21 06:00:08;;;;;;;8.07;2.25;;;;;;;2.14;44.79;100733.94;4331416;33;32315;-92
2021/12/21 06:02:59;;;;;;;6.53;2.12;;;;;;;1.71;45.93;100749.28;4330394;33;34266;-92
2021/12/21 06:05:42;;;;;;;8.52;2.58;;;;;;;1.58;46.06;100751.78;4317547;33;32884;-93
2021/12/21 06:08:34;;;;;;;5.18;2.53;;;;;;;2.38;43.76;100742.72;4311594;33;32647;-91
2021/12/21 06:11:15;;;;;;;5.37;1.95;;;;;;;2.34;44.08;100751.41;4339550;33;32850;-89
2021/12/21 06:25:35;;;;;;;6.50;2.42;;;;;;;2.21;46.02;100782.59;4328750;33;33080;-93
2021/12/21 06:28:15;;;;;;;4.45;2.50;;;;;;;2.25;45.97;100789.56;4329595;32;32639;-94
2021/12/21 06:30:57;;;;;;;7.43;3.62;;;;;;;2.01;46.88;100786.81;4344570;32;32749;-92
2021/12/21 06:33:49;;;;;;;5.62;2.10;;;;;;;2.15;46.93;100798.19;4335564;33;32381;-94
2021/12/21 06:36:29;;;;;;;2.42;1.48;;;;;;;2.32;46.33;100795.66;4326846;33;34035;-92
2021/12/21 06:39:20;;;;;;;4.32;0.93;;;;;;;2.48;45.84;100801.88;4323481;33;32897;-91
2021/12/21 06:42:09;;;;;;;2.03;1.35;;;;;;;1.90;47.75;100798.88;4327886;33;33022;-90
2021/12/21 06:44:42;;;;;;;2.75;1.00;;;;;;;1.95;47.81;100799.81;4331916;33;33156;-94
2021/12/21 06:55:03;;;;;;;1.27;0.82;;;;;;;1.79;47.55;100804.88;4337292;33;34733;-95
2021/12/21 06:57:57;;;;;;;1.98;0.90;;;;;;;1.63;48.25;100803.00;4348822;33;34122;-96
2021/12/21 07:00:37;;;;;;;5.50;1.12;;;;;;;1.52;48.54;100812.47;4314002;33;32736;-94
2021/12/21 07:03:20;;;;;;;3.83;1.60;;;;;;;1.56;48.50;100808.12;4323259;33;32728;-94
2021/12/21 07:06:19;;;;;;;2.47;1.20;;;;;;;1.42;48.98;100826.22;4333114;33;35250;-96
2021/12/21 07:09:05;;;;;;;;;;;;;;;1.86;48.25;100820.56;4339916;33;32464;-96
2021/12/21 07:18:24;;;;;;;2.58;1.52;;;;;;;2.00;47.80;100824.16;4333130;33;34401;-96
2021/12/21 07:36:01;;;;;;;10.27;3.78;;;;;;;2.31;47.03;100830.44;4376339;32;35268;-96
2021/12/21 07:39:07;;;;;;;4.90;2.90;;;;;;;2.12;47.84;100826.81;4351175;32;32559;-95
2021/12/21 07:41:49;;;;;;;5.15;1.80;;;;;;;2.44;46.91;100827.03;4310632;33;32770;-96
2021/12/21 07:44:31;;;;;;;7.25;1.35;;;;;;;2.56;46.65;100827.13;4318254;33;33000;-96
2021/12/21 07:47:23;;;;;;;4.45;1.70;;;;;;;2.81;45.99;100825.50;4327075;33;32016;-95
2021/12/21 07:50:06;;;;;;;6.45;1.65;;;;;;;2.66;46.40;100822.81;4316598;33;33090;-96
2021/12/21 07:53:00;;;;;;;11.52;1.77;;;;;;;2.58;46.54;100826.25;4305065;33;32722;-96
2021/12/21 07:55:39;;;;;;;;;;;;;;;2.67;46.72;100834.13;4292207;33;32367;-96
2021/12/21 07:58:34;;;;;;;4.20;2.00;;;;;;;2.65;46.88;100831.47;4329135;33;31789;-96
2021/12/21 08:01:14;;;;;;;3.60;1.45;;;;;;;2.56;47.82;100829.72;4318902;33;33321;-93
2021/12/21 08:03:58;;;;;;;3.42;1.52;;;;;;;2.34;47.32;100834.78;4316120;33;32841;-95
2021/12/21 08:06:51;;;;;;;5.22;1.50;;;;;;;2.74;47.23;100831.53;4321490;33;32968;-94
2021/12/21 08:10:52;;;;;;;2.85;1.17;;;;;;;2.56;47.58;100829.72;4320496;33;35258;-92
2021/12/21 08:13:30;;;;;;;4.20;1.12;;;;;;;2.87;47.00;100831.59;4300620;33;33084;-88
2021/12/21 08:15:57;;;;;;;4.70;1.48;;;;;;;2.80;47.10;100834.19;4322464;33;33991;-88
2021/12/21 08:18:25;;;;;;;3.00;1.92;;;;;;;2.60;46.61;100837.53;4308843;33;33121;-88
2021/12/21 08:20:53;;;;;;;5.53;1.52;;;;;;;2.58;46.91;100836.69;4320718;33;33952;-88
2021/12/21 08:23:21;;;;;;;2.53;1.12;;;;;;;2.86;46.82;100845.50;4323734;33;33418;-88
2021/12/21 08:25:49;;;;;;;13.23;1.73;;;;;;;2.75;46.53;100838.50;4323517;33;33162;-89
2021/12/21 08:28:17;;;;;;;7.07;2.17;;;;;;;2.71;46.88;100836.75;4330448;33;32929;-86
2021/12/21 08:30:45;;;;;;;2.22;1.37;;;;;;;2.99;46.64;100832.53;4336513;33;33754;-87
2021/12/21 08:33:13;;;;;;;4.97;1.73;;;;;;;2.81;46.10;100837.66;4326746;33;34632;-89
2021/12/21 08:35:41;;;;;;;2.28;1.15;;;;;;;2.82;46.63;100827.22;4313737;33;34276;-89
2021/12/21 08:38:14;;;;;;;2.53;1.12;;;;;;;3.15;45.42;100836.03;4313079;33;32551;-88
2021/12/21 08:40:45;;;;;;;3.58;1.25;;;;;;;2.96;45.85;100842.94;4311979;33;32847;-88
2021/12/21 08:43:15;;;;;;;3.92;1.62;;;;;;;2.88;46.13;100835.94;4323781;33;33478;-86
2021/12/21 08:45:44;;;;;;;3.17;1.33;;;;;;;3.06;46.49;100842.09;4312532;33;32305;-89
2021/12/21 08:48:13;;;;;;;3.10;1.35;;;;;;;3.58;45.17;100839.63;4314557;33;32654;-87
2021/12/21 08:50:42;;;;;;;3.47;1.42;;;;;;;3.65;44.63;100842.22;4330792;33;32728;-89
2021/12/21 08:53:12;;;;;;;2.15;1.25;;;;;;;3.51;45.09;100847.44;4330267;33;32479;-89
2021/12/21 08:55:42;;;;;;;5.03;2.03;;;;;;;3.58;45.16;100844.84;4327553;33;33902;-90
2021/12/21 08:58:11;;;;;;;3.20;1.58;;;;;;;3.74;44.91;100850.94;4326446;33;34418;-90
2021/12/21 09:00:40;;;;;;;1.95;1.40;;;;;;;3.54;45.98;100842.22;4328097;33;32140;-87
2021/12/21 09:03:09;;;;;;;2.85;1.52;;;;;;;3.82;45.50;100849.22;4330830;33;34293;-87
2021/12/21 09:05:37;;;;;;;3.65;1.62;;;;;;;3.76;46.29;100849.22;4310342;33;33971;-89
2021/12/21 09:08:07;;;;;;;2.80;1.85;;;;;;;3.77;47.04;100856.19;4323367;33;33846;-89
2021/12/21 09:10:35;;;;;;;8.13;1.70;;;;;;;4.10;46.66;100854.44;4298886;33;33446;-88
2021/12/21 09:13:04;;;;;;;2.33;1.48;;;;;;;3.93;47.63;100861.41;4315407;33;33916;-87
2021/12/21 09:15:32;;;;;;;3.97;1.37;;;;;;;4.18;47.26;100851.81;4322007;33;32942;-91
2021/12/21 09:18:00;;;;;;;3.90;2.42;;;;;;;3.94;48.40;100858.81;4321494;33;32566;-91
2021/12/21 09:20:36;;;;;;;3.62;1.85;;;;;;;4.21;47.43;100860.53;4310288;33;32908;-89
2021/12/21 09:23:20;;;;;;;3.22;1.55;;;;;;;4.11;48.15;100856.19;4330115;33;33001;-89
2021/12/21 09:25:48;;;;;;;4.82;2.20;;;;;;;4.29;47.11;100853.56;4315241;33;33427;-91
2021/12/21 09:29:03;;;;;;;5.15;2.47;;;;;;;4.41;47.04;100846.56;4299014;33;34118;-90
2021/12/21 09:31:31;;;;;;;2.75;1.98;;;;;;;4.32;47.41;100850.06;4298110;33;32231;-91
2021/12/21 09:34:10;;;;;;;2.65;1.85;;;;;;;4.75;46.15;100845.62;4312306;33;32918;-92
2021/12/21 09:37:19;;;;;;;;;;;;;;;4.45;46.94;100843.06;4324372;33;32400;-91
2021/12/21 09:39:53;;;;;;;4.85;1.83;;;;;;;4.56;46.61;100842.19;4307880;33;32880;-91
2021/12/21 09:42:34;;;;;;;2.62;1.37;;;;;;;4.66;46.69;100840.41;4332654;32;32325;-90
2021/12/21 09:45:04;;;;;;;4.55;1.52;;;;;;;4.93;45.83;100844.66;4316071;32;33054;-89
2021/12/21 09:47:34;;;;;;;;;;;;;;;4.94;46.05;100846.44;4330601;32;32885;-92
2021/12/21 09:50:54;;;;;;;4.15;1.42;;;;;;;5.02;45.66;100835.91;4337935;33;33781;-90
2021/12/21 09:53:59;;;;;;;3.50;1.67;;;;;;;5.00;46.31;100835.06;4338957;32;32105;-90
2021/12/21 09:56:27;;;;;;;3.40;1.75;;;;;;;5.09;45.80;100829.78;4314268;32;33040;-90
2021/12/21 09:58:56;;;;;;;2.72;1.58;;;;;;;4.85;47.55;100826.38;4339698;33;33820;-89
2021/12/21 10:01:23;;;;;;;7.07;1.90;;;;;;;5.22;45.62;100821.00;4339967;33;33465;-87
2021/12/21 10:03:51;;;;;;;3.20;1.90;;;;;;;5.45;45.59;100814.72;4328249;33;34007;-85
2021/12/21 10:06:19;;;;;;;3.70;1.77;;;;;;;5.54;44.94;100812.03;4351942;32;34648;-87
2021/12/21 10:08:47;;;;;;;4.62;1.83;;;;;;;5.67;44.98;100812.84;4337058;33;33908;-92
2021/12/21 10:11:56;;;;;;;4.50;1.85;;;;;;;5.65;44.64;100812.84;4334643;33;33829;-91
2021/12/21 10:15:48;;;;;;;4.78;2.22;;;;;;;5.34;46.37;100806.94;4340016;32;34367;-90
2021/12/21 10:18:43;;;;;;;3.75;1.90;;;;;;;5.61;45.19;100808.50;4351423;32;33404;-89
2021/12/21 10:21:18;;;;;;;1.87;1.35;;;;;;;5.38;45.60;100804.28;4327780;33;33278;-89
2021/12/21 10:23:59;;;;;;;3.25;1.92;;;;;;;5.52;45.82;100798.09;4315372;33;32900;-89
2021/12/21 10:26:32;;;;;;;2.85;1.37;;;;;;;5.44;45.60;100794.66;4329000;33;33021;-89
2021/12/21 10:29:05;;;;;;;4.18;1.80;;;;;;;6.26;43.38;100786.09;4341848;33;34678;-90
2021/12/21 10:31:40;;;;;;;4.10;1.80;;;;;;;5.69;44.40;100795.34;4339809;33;33487;-89
2021/12/21 10:34:17;;;;;;;2.78;1.27;;;;;;;5.70;43.63;100792.72;4326176;33;33092;-90
2021/12/21 10:36:52;;;;;;;3.25;1.55;;;;;;;5.99;44.21;100789.00;4337803;32;31621;-90
2021/12/21 10:39:22;;;;;;;4.45;1.92;;;;;;;6.09;43.16;100785.41;4326892;33;33196;-90
2021/12/21 10:41:52;;;;;;;4.40;1.60;;;;;;;5.94;43.51;100775.09;4338449;32;34085;-90
2021/12/21 10:44:52;;;;;;;3.12;1.42;;;;;;;6.20;43.87;100773.06;4319760;33;32341;-89
2021/12/21 10:47:21;;;;;;;7.85;1.52;;;;;;;5.96;44.44;100773.31;4339656;32;34640;-89
2021/12/21 10:49:51;;;;;;;3.10;1.12;;;;;;;6.57;41.38;100767.41;4339719;33;33800;-89
2021/12/21 10:52:21;;;;;;;2.90;1.48;;;;;;;6.37;42.25;100770.28;4331995;32;33916;-89
2021/12/21 10:54:50;;;;;;;3.22;1.48;;;;;;;6.07;43.76;100766.19;4334913;33;34140;-89
2021/12/21 10:57:23;;;;;;;3.47;1.00;;;;;;;6.37;43.23;100760.66;4346902;33;33480;-89
2021/12/21 10:59:53;;;;;;;2.80;1.42;;;;;;;6.29;43.53;100762.47;4344854;33;32301;-89
2021/12/21 11:02:28;;;;;;;2.72;1.20;;;;;;;5.75;44.52;100769.97;4334349;33;34098;-87
2021/12/21 11:05:09;;;;;;;4.57;1.52;;;;;;;5.63;44.66;100770.06;4358731;32;32169;-89
2021/12/21 11:10:19;;;;;;;6.15;1.62;;;;;;;6.20;42.82;100756.47;4358554;32;32894;-89
2021/12/21 11:13:48;;;;;;;6.18;2.20;;;;;;;6.06;42.93;100746.97;4346013;32;33252;-89
2021/12/21 11:17:00;;;;;;;3.25;1.48;;;;;;;6.39;42.58;100745.75;4331536;32;34276;-90
2021/12/21 11:19:34;;;;;;;2.62;1.70;;;;;;;6.78;42.02;100740.88;4359127;32;32675;-89
2021/12/21 11:22:02;;;;;;;2.12;1.77;;;;;;;6.50;42.78;100735.09;4334458;33;32491;-89
2021/12/21 11:24:30;;;;;;;3.78;1.85;;;;;;;6.53;42.42;100740.34;4358960;32;32890;-89
2021/12/21 11:27:02;;;;;;;4.82;1.45;;;;;;;6.62;42.61;100739.34;4334388;33;32635;-89
2021/12/21 11:30:09;;;;;;;6.80;1.33;;;;;;;6.75;41.66;100733.06;4345538;33;32826;-91
2021/12/21 11:32:49;;;;;;;2.97;1.52;;;;;;;6.37;42.07;100729.16;4335141;33;33613;-86
2021/12/21 11:37:52;;;;;;;;;;;;;;;6.89;41.04;100725.00;4337889;33;34211;-92
2021/12/21 11:40:43;;;;;;;3.15;1.30;;;;;;;6.82;41.37;100726.84;4325336;33;31943;-92
2021/12/21 11:43:49;;;;;;;7.45;1.55;;;;;;;6.57;40.84;100731.53;4328762;33;32568;-95
2021/12/21 11:46:39;;;;;;;2.75;1.55;;;;;;;5.59;44.12;100742.13;4341728;32;32669;-93
2021/12/21 11:49:39;;;;;;;3.25;1.27;;;;;;;6.15;41.96;100739.00;4320101;33;35299;-94
2021/12/21 11:52:21;;;;;;;1.95;1.37;;;;;;;5.60;43.24;100736.91;4326801;33;31860;-93
2021/12/21 11:55:14;;;;;;;3.97;1.42;;;;;;;5.89;42.72;100733.16;4316959;33;33618;-96
2021/12/21 11:58:15;;;;;;;3.90;2.20;;;;;;;5.75;43.58;100735.91;4365333;32;32830;-91
2021/12/21 12:01:16;;;;;;;2.97;1.80;;;;;;;5.71;44.12;100731.56;4342664;33;33264;-91
2021/12/21 12:04:11;;;;;;;;;;;;;;;5.73;44.24;100724.53;4339328;33;34975;-91
2021/12/21 12:06:59;;;;;;;3.08;1.60;;;;;;;5.68;44.73;100726.34;4337145;33;33100;-89
2021/12/21 12:09:30;;;;;;;2.62;1.45;;;;;;;5.81;43.83;100721.87;4321479;33;33397;-89
2021/12/21 12:12:12;;;;;;;3.95;2.40;;;;;;;5.97;43.07;100727.84;4319168;33;33885;-90
2021/12/21 12:14:59;;;;;;;3.55;2.17;;;;;;;6.02;43.35;100718.19;4311661;33;32507;-89
2021/12/21 12:17:28;;;;;;;5.00;2.30;;;;;;;5.90;43.80;100727.03;4321048;33;34014;-89
2021/12/21 12:20:04;;;;;;;4.22;1.83;;;;;;;5.68;44.49;100722.84;4309875;33;34653;-89
2021/12/21 12:22:37;;;;;;;6.57;2.00;;;;;;;5.62;44.49;100710.69;4320410;33;33101;-89
2021/12/21 12:25:07;;;;;;;3.75;1.52;;;;;;;5.59;44.45;100708.06;4335982;33;33094;-89
2021/12/21 12:27:43;;;;;;;3.67;1.67;;;;;;;5.77;43.89;100715.78;4335510;33;32692;-90
2021/12/21 12:30:20;;;;;;;5.40;1.80;;;;;;;5.72;44.18;100709.72;4324967;33;33991;-89
2021/12/21 12:33:02;;;;;;;3.05;1.92;;;;;;;5.93;43.32;100713.91;4336079;33;32981;-89
2021/12/21 12:39:55;;;;;;;2.58;1.45;;;;;;;5.68;42.81;100723.72;4335286;33;32459;-91
2021/12/21 12:42:39;;;;;;;2.08;1.02;;;;;;;5.90;42.00;100730.50;4321391;33;33208;-88
2021/12/21 12:45:10;;;;;;;3.70;1.55;;;;;;;5.96;41.64;100728.75;4312004;33;33730;-90
2021/12/21 12:47:52;;;;;;;3.20;2.12;;;;;;;5.71;42.36;100721.09;4335791;33;31820;-89
2021/12/21 12:50:23;;;;;;;2.78;1.50;;;;;;;6.03;41.58;100717.28;4335921;33;33801;-89
2021/12/21 12:52:58;;;;;;;4.25;1.90;;;;;;;5.95;42.54;100708.66;4317036;33;32843;-89
2021/12/21 12:55:59;;;;;;;3.72;1.62;;;;;;;5.84;42.67;100725.34;4324924;33;32684;-91
2021/12/21 12:59:03;;;;;;;2.28;1.37;;;;;;;6.24;41.37;100716.22;4318625;33;34215;-90
2021/12/21 13:01:46;;;;;;;3.22;1.80;;;;;;;6.10;41.96;100724.22;4325814;33;33067;-90
2021/12/21 13:04:40;;;;;;;4.68;1.62;;;;;;;6.18;41.96;100714.53;4324371;33;34808;-87
2021/12/21 13:07:07;;;;;;;2.90;2.05;;;;;;;5.35;44.68;100728.34;4316057;33;32767;-88
2021/12/21 13:09:35;;;;;;;3.22;1.83;;;;;;;5.70;43.00;100727.22;4321308;33;33136;-88
2021/12/21 13:12:09;;;;;;;2.97;1.60;;;;;;;5.55;43.97;100722.09;4311232;33;32913;-89
2021/12/21 13:14:37;;;;;;;4.15;2.30;;;;;;;5.56;43.04;100723.84;4312415;33;33197;-88
2021/12/21 13:17:05;;;;;;;4.95;2.05;;;;;;;5.37;43.43;100726.59;4332544;33;32773;-92
2021/12/21 13:19:35;;;;;;;3.45;2.05;;;;;;;5.53;43.38;100729.97;4313197;33;33695;-90
2021/12/21 13:22:04;;;;;;;5.25;2.00;;;;;;;5.46;43.85;100735.25;4312807;33;32546;-89
2021/12/21 13:24:34;;;;;;;2.90;1.52;;;;;;;5.50;43.90;100726.50;4325558;33;33272;-90
2021/12/21 13:27:29;;;;;;;3.60;2.10;;;;;;;5.34;44.29;100731.84;4311165;33;33788;-90
2021/12/21 13:30:05;;;;;;;6.25;2.05;;;;;;;5.13;45.28;100737.25;4316807;33;32652;-90
2021/12/21 13:32:34;;;;;;;8.00;1.70;;;;;;;5.27;44.26;100732.81;4316209;33;33075;-90
2021/12/21 13:35:02;;;;;;;1.92;1.23;;;;;;;5.51;43.07;100726.50;4332307;33;34129;-90
2021/12/21 13:37:32;;;;;;;2.42;1.40;;;;;;;5.36;42.76;100724.87;4311057;33;32923;-87
2021/12/21 13:40:01;;;;;;;3.50;1.05;;;;;;;5.44;42.85;100723.94;4320795;33;33466;-87
2021/12/21 13:42:50;;;;;;;4.00;1.50;;;;;;;5.24;44.11;100724.94;4320493;33;32621;-87
2021/12/21 13:45:18;;;;;;;5.28;1.77;;;;;;;5.39;43.18;100729.19;4321111;33;33862;-88
2021/12/21 13:47:50;;;;;;;3.53;1.50;;;;;;;5.04;44.89;100726.84;4320584;33;33296;-87
2021/12/21 13:50:26;;;;;;;5.12;1.52;;;;;;;5.34;43.90;100716.13;4320963;33;32769;-86
2021/12/21 13:52:55;;;;;;;1.70;1.23;;;;;;;4.87;45.08;100719.09;4321272;33;33793;-90
2021/12/21 13:55:43;;;;;;;3.67;1.65;;;;;;;5.48;42.61;100717.78;4323085;33;33177;-90
2021/12/21 13:58:13;;;;;;;2.40;1.23;;;;;;;5.17;43.48;100723.25;4332805;33;32894;-90
2021/12/21 14:00:47;;;;;;;2.28;1.37;;;;;;;5.04;44.62;100721.63;4320692;33;32569;-89
2021/12/21 14:03:33;;;;;;;7.75;1.75;;;;;;;4.84;45.02;100721.69;4320721;33;33737;-89
2021/12/21 14:06:12;;;;;;;2.62;1.77;;;;;;;5.18;43.88;100719.78;4333216;33;32995;-88
2021/12/21 14:08:44;;;;;;;6.50;2.28;;;;;;;5.20;43.77;100723.22;4333922;33;32527;-92
2021/12/21 14:11:42;;;;;;;3.90;2.05;;;;;;;5.19;44.44;100723.25;4324406;33;33183;-90
2021/12/21 14:14:50;;;;;;;3.95;1.80;;;;;;;5.43;43.37;100722.19;4347674;33;33931;-91
2021/12/21 14:17:37;;;;;;;4.00;1.92;;;;;;;4.92;45.06;100722.53;4337318;33;33103;-91
2021/12/21 14:20:28;;;;;;;3.70;1.85;;;;;;;4.99;45.45;100726.88;4335437;33;32531;-91
2021/12/21 14:23:07;;;;;;;3.28;1.83;;;;;;;5.06;45.56;100725.94;4309290;33;33024;-90
2021/12/21 14:26:21;;;;;;;2.92;1.60;;;;;;;5.17;44.98;100728.47;4305957;33;33813;-91
2021/12/21 14:29:12;;;;;;;6.32;1.98;;;;;;;4.94;45.76;100727.75;4309173;33;33375;-91
2021/12/21 14:32:02;;;;;;;2.78;1.65;;;;;;;5.03;45.54;100730.31;4315294;33;32734;-93
2021/12/21 14:34:50;;;;;;;4.57;2.10;;;;;;;5.12;45.42;100722.41;4306260;33;32412;-91
2021/12/21 14:37:41;;;;;;;2.53;2.12;;;;;;;4.86;46.12;100723.44;4296504;33;32641;-92